sensor_id;sensor_type;location;lat;lon;timestamp;P1;durP1;ratioP1;P2;durP2;ratioP2
5951;SDS011;3001;42.622;23.194;2023-05-10T00:01:47;3.00;;;2.90;;
5951;SDS011;3001;42.622;23.194;2023-05-10T00:04:13;3.70;;;3.50;;
5951;SDS011;3001;42.622;23.194;2023-05-10T00:06:40;3.30;;;3.13;;
5951;SDS011;3001;42.622;23.194;2023-05-10T00:09:07;3.30;;;3.03;;
5951;SDS011;3001;42.622;23.194;2023-05-10T00:11:33;5.83;;;3.53;;
5951;SDS011;3001;42.622;23.194;2023-05-10T00:14:01;19.40;;;4.20;;
5951;SDS011;3001;42.622;23.194;2023-05-10T00:16:28;4.33;;;4.13;;
5951;SDS011;3001;42.622;23.194;2023-05-10T00:18:55;4.70;;;4.40;;
5951;SDS011;3001;42.622;23.194;2023-05-10T00:21:21;68.13;;;5.60;;
5951;SDS011;3001;42.622;23.194;2023-05-10T00:23:48;3.67;;;3.47;;
5951;SDS011;3001;42.622;23.194;2023-05-10T00:26:15;2.80;;;2.70;;
5951;SDS011;3001;42.622;23.194;2023-05-10T00:28:42;8.83;;;2.93;;
5951;SDS011;3001;42.622;23.194;2023-05-10T00:31:10;14.07;;;3.27;;
5951;SDS011;3001;42.622;23.194;2023-05-10T00:33:36;3.50;;;3.27;;
5951;SDS011;3001;42.622;23.194;2023-05-10T00:36:03;3.00;;;2.80;;
5951;SDS011;3001;42.622;23.194;2023-05-10T00:38:32;3.43;;;3.23;;
5951;SDS011;3001;42.622;23.194;2023-05-10T00:40:59;3.60;;;3.40;;
5951;SDS011;3001;42.622;23.194;2023-05-10T00:43:26;3.97;;;3.77;;
5951;SDS011;3001;42.622;23.194;2023-05-10T00:45:52;4.20;;;3.87;;
5951;SDS011;3001;42.622;23.194;2023-05-10T00:48:22;3.73;;;3.53;;
5951;SDS011;3001;42.622;23.194;2023-05-10T00:50:49;3.97;;;3.77;;
5951;SDS011;3001;42.622;23.194;2023-05-10T00:53:15;3.83;;;3.63;;
5951;SDS011;3001;42.622;23.194;2023-05-10T00:55:44;7.63;;;4.53;;
5951;SDS011;3001;42.622;23.194;2023-05-10T00:58:10;4.10;;;3.80;;
5951;SDS011;3001;42.622;23.194;2023-05-10T01:00:38;5.97;;;4.37;;
5951;SDS011;3001;42.622;23.194;2023-05-10T01:03:09;3.70;;;3.40;;
5951;SDS011;3001;42.622;23.194;2023-05-10T01:05:37;4.63;;;4.43;;
5951;SDS011;3001;42.622;23.194;2023-05-10T01:08:04;3.83;;;3.63;;
5951;SDS011;3001;42.622;23.194;2023-05-10T01:10:31;4.67;;;4.47;;
5951;SDS011;3001;42.622;23.194;2023-05-10T01:12:58;4.53;;;4.20;;
5951;SDS011;3001;42.622;23.194;2023-05-10T01:15:25;4.30;;;4.10;;
5951;SDS011;3001;42.622;23.194;2023-05-10T01:17:53;19.57;;;4.80;;
5951;SDS011;3001;42.622;23.194;2023-05-10T01:20:20;4.43;;;4.13;;
5951;SDS011;3001;42.622;23.194;2023-05-10T01:22:53;4.27;;;4.07;;
5951;SDS011;3001;42.622;23.194;2023-05-10T01:28:48;4.27;;;3.97;;
5951;SDS011;3001;42.622;23.194;2023-05-10T01:31:40;4.30;;;3.90;;
5951;SDS011;3001;42.622;23.194;2023-05-10T01:34:32;4.03;;;3.83;;
5951;SDS011;3001;42.622;23.194;2023-05-10T01:37:02;5.00;;;4.60;;
5951;SDS011;3001;42.622;23.194;2023-05-10T01:39:36;4.27;;;4.07;;
5951;SDS011;3001;42.622;23.194;2023-05-10T01:42:11;4.50;;;4.30;;
5951;SDS011;3001;42.622;23.194;2023-05-10T01:44:42;4.83;;;4.53;;
5951;SDS011;3001;42.622;23.194;2023-05-10T01:47:19;4.27;;;4.07;;
5951;SDS011;3001;42.622;23.194;2023-05-10T01:49:53;4.47;;;4.07;;
5951;SDS011;3001;42.622;23.194;2023-05-10T01:52:22;4.10;;;3.90;;
5951;SDS011;3001;42.622;23.194;2023-05-10T01:54:53;6.63;;;4.80;;
5951;SDS011;3001;42.622;23.194;2023-05-10T01:57:27;4.47;;;4.27;;
5951;SDS011;3001;42.622;23.194;2023-05-10T02:00:00;4.00;;;3.80;;
5951;SDS011;3001;42.622;23.194;2023-05-10T02:02:30;4.47;;;4.17;;
5951;SDS011;3001;42.622;23.194;2023-05-10T02:05:00;4.87;;;4.63;;
5951;SDS011;3001;42.622;23.194;2023-05-10T02:07:30;4.23;;;3.93;;
5951;SDS011;3001;42.622;23.194;2023-05-10T02:09:58;4.60;;;4.40;;
5951;SDS011;3001;42.622;23.194;2023-05-10T02:12:25;4.90;;;4.60;;
5951;SDS011;3001;42.622;23.194;2023-05-10T02:14:54;4.53;;;4.33;;
5951;SDS011;3001;42.622;23.194;2023-05-10T02:17:23;5.03;;;4.63;;
5951;SDS011;3001;42.622;23.194;2023-05-10T02:19:53;4.83;;;4.50;;
5951;SDS011;3001;42.622;23.194;2023-05-10T02:22:22;5.03;;;4.73;;
5951;SDS011;3001;42.622;23.194;2023-05-10T02:24:51;5.23;;;4.93;;
5951;SDS011;3001;42.622;23.194;2023-05-10T02:27:21;6.07;;;5.67;;
5951;SDS011;3001;42.622;23.194;2023-05-10T02:29:49;5.33;;;5.00;;
5951;SDS011;3001;42.622;23.194;2023-05-10T02:32:17;5.53;;;5.13;;
5951;SDS011;3001;42.622;23.194;2023-05-10T02:34:44;5.13;;;4.83;;
5951;SDS011;3001;42.622;23.194;2023-05-10T02:37:18;4.97;;;4.67;;
5951;SDS011;3001;42.622;23.194;2023-05-10T02:39:45;5.47;;;5.10;;
5951;SDS011;3001;42.622;23.194;2023-05-10T02:42:14;4.70;;;4.30;;
5951;SDS011;3001;42.622;23.194;2023-05-10T02:44:44;4.13;;;3.93;;
5951;SDS011;3001;42.622;23.194;2023-05-10T02:47:13;5.33;;;5.00;;
5951;SDS011;3001;42.622;23.194;2023-05-10T02:49:40;4.40;;;4.00;;
5951;SDS011;3001;42.622;23.194;2023-05-10T02:52:07;4.27;;;3.87;;
5951;SDS011;3001;42.622;23.194;2023-05-10T02:54:38;4.00;;;3.80;;
5951;SDS011;3001;42.622;23.194;2023-05-10T02:57:07;5.13;;;3.83;;
5951;SDS011;3001;42.622;23.194;2023-05-10T02:59:37;4.27;;;4.07;;
5951;SDS011;3001;42.622;23.194;2023-05-10T03:02:04;5.60;;;4.27;;
5951;SDS011;3001;42.622;23.194;2023-05-10T03:04:31;4.50;;;4.20;;
5951;SDS011;3001;42.622;23.194;2023-05-10T03:06:57;4.40;;;4.20;;
5951;SDS011;3001;42.622;23.194;2023-05-10T03:09:24;4.20;;;4.00;;
5951;SDS011;3001;42.622;23.194;2023-05-10T03:11:55;3.97;;;3.77;;
5951;SDS011;3001;42.622;23.194;2023-05-10T03:14:31;4.50;;;4.20;;
5951;SDS011;3001;42.622;23.194;2023-05-10T03:17:10;4.67;;;4.47;;
5951;SDS011;3001;42.622;23.194;2023-05-10T03:19:43;5.13;;;4.83;;
5951;SDS011;3001;42.622;23.194;2023-05-10T03:22:15;6.20;;;5.60;;
5951;SDS011;3001;42.622;23.194;2023-05-10T03:24:47;6.07;;;5.57;;
5951;SDS011;3001;42.622;23.194;2023-05-10T03:27:17;5.63;;;5.03;;
5951;SDS011;3001;42.622;23.194;2023-05-10T03:29:44;6.03;;;5.63;;
5951;SDS011;3001;42.622;23.194;2023-05-10T03:32:12;5.93;;;5.60;;
5951;SDS011;3001;42.622;23.194;2023-05-10T03:34:41;5.30;;;5.00;;
5951;SDS011;3001;42.622;23.194;2023-05-10T03:37:08;5.47;;;5.27;;
5951;SDS011;3001;42.622;23.194;2023-05-10T03:39:36;6.23;;;5.53;;
5951;SDS011;3001;42.622;23.194;2023-05-10T03:42:03;5.00;;;4.70;;
5951;SDS011;3001;42.622;23.194;2023-05-10T03:44:31;4.90;;;4.63;;
5951;SDS011;3001;42.622;23.194;2023-05-10T03:46:58;5.23;;;4.93;;
5951;SDS011;3001;42.622;23.194;2023-05-10T03:49:25;5.40;;;4.90;;
5951;SDS011;3001;42.622;23.194;2023-05-10T03:51:51;5.10;;;4.80;;
5951;SDS011;3001;42.622;23.194;2023-05-10T03:54:18;5.40;;;5.00;;
5951;SDS011;3001;42.622;23.194;2023-05-10T03:56:45;5.17;;;4.87;;
5951;SDS011;3001;42.622;23.194;2023-05-10T03:59:12;5.80;;;5.10;;
5951;SDS011;3001;42.622;23.194;2023-05-10T04:01:41;8.43;;;5.10;;
5951;SDS011;3001;42.622;23.194;2023-05-10T04:04:08;6.67;;;6.37;;
5951;SDS011;3001;42.622;23.194;2023-05-10T04:06:34;8.20;;;7.60;;
5951;SDS011;3001;42.622;23.194;2023-05-10T04:09:01;7.60;;;6.90;;
5951;SDS011;3001;42.622;23.194;2023-05-10T04:11:29;8.70;;;7.00;;
5951;SDS011;3001;42.622;23.194;2023-05-10T04:13:56;5.67;;;5.37;;
5951;SDS011;3001;42.622;23.194;2023-05-10T04:16:23;6.37;;;5.77;;
5951;SDS011;3001;42.622;23.194;2023-05-10T04:18:51;6.60;;;6.20;;
5951;SDS011;3001;42.622;23.194;2023-05-10T04:21:17;6.20;;;5.80;;
5951;SDS011;3001;42.622;23.194;2023-05-10T04:23:44;7.23;;;6.60;;
5951;SDS011;3001;42.622;23.194;2023-05-10T04:26:11;7.63;;;7.03;;
5951;SDS011;3001;42.622;23.194;2023-05-10T04:28:38;6.87;;;6.47;;
5951;SDS011;3001;42.622;23.194;2023-05-10T04:31:05;7.13;;;6.63;;
5951;SDS011;3001;42.622;23.194;2023-05-10T04:33:33;6.37;;;5.97;;
5951;SDS011;3001;42.622;23.194;2023-05-10T04:36:02;7.03;;;6.17;;
5951;SDS011;3001;42.622;23.194;2023-05-10T04:38:29;6.43;;;6.03;;
5951;SDS011;3001;42.622;23.194;2023-05-10T04:41:03;6.40;;;6.00;;
5951;SDS011;3001;42.622;23.194;2023-05-10T04:43:31;6.80;;;6.40;;
5951;SDS011;3001;42.622;23.194;2023-05-10T04:45:57;6.70;;;6.10;;
5951;SDS011;3001;42.622;23.194;2023-05-10T04:48:25;6.97;;;6.33;;
5951;SDS011;3001;42.622;23.194;2023-05-10T04:50:52;6.40;;;6.00;;
5951;SDS011;3001;42.622;23.194;2023-05-10T04:53:20;6.27;;;5.87;;
5951;SDS011;3001;42.622;23.194;2023-05-10T04:55:46;6.40;;;5.90;;
5951;SDS011;3001;42.622;23.194;2023-05-10T04:58:13;6.37;;;6.00;;
5951;SDS011;3001;42.622;23.194;2023-05-10T05:00:40;5.77;;;5.47;;
5951;SDS011;3001;42.622;23.194;2023-05-10T05:03:07;6.20;;;5.90;;
5951;SDS011;3001;42.622;23.194;2023-05-10T05:05:34;6.70;;;6.20;;
5951;SDS011;3001;42.622;23.194;2023-05-10T05:08:01;7.10;;;6.60;;
5951;SDS011;3001;42.622;23.194;2023-05-10T05:10:29;6.93;;;6.43;;
5951;SDS011;3001;42.622;23.194;2023-05-10T05:12:56;7.33;;;6.63;;
5951;SDS011;3001;42.622;23.194;2023-05-10T05:15:22;6.50;;;6.10;;
5951;SDS011;3001;42.622;23.194;2023-05-10T05:17:49;10.67;;;7.27;;
5951;SDS011;3001;42.622;23.194;2023-05-10T05:20:16;6.67;;;6.23;;
5951;SDS011;3001;42.622;23.194;2023-05-10T05:22:44;7.63;;;7.03;;
5951;SDS011;3001;42.622;23.194;2023-05-10T05:25:11;6.57;;;6.17;;
5951;SDS011;3001;42.622;23.194;2023-05-10T05:27:39;7.20;;;6.73;;
5951;SDS011;3001;42.622;23.194;2023-05-10T05:30:06;7.17;;;6.53;;
5951;SDS011;3001;42.622;23.194;2023-05-10T05:32:33;7.03;;;6.50;;
5951;SDS011;3001;42.622;23.194;2023-05-10T05:35:00;6.90;;;6.50;;
5951;SDS011;3001;42.622;23.194;2023-05-10T05:37:27;7.53;;;6.80;;
5951;SDS011;3001;42.622;23.194;2023-05-10T05:39:53;6.53;;;6.13;;
5951;SDS011;3001;42.622;23.194;2023-05-10T05:42:20;7.00;;;6.60;;
5951;SDS011;3001;42.622;23.194;2023-05-10T05:44:48;7.27;;;6.67;;
5951;SDS011;3001;42.622;23.194;2023-05-10T05:47:15;7.03;;;6.53;;
5951;SDS011;3001;42.622;23.194;2023-05-10T05:49:41;7.00;;;6.57;;
5951;SDS011;3001;42.622;23.194;2023-05-10T05:52:10;8.17;;;7.57;;
5951;SDS011;3001;42.622;23.194;2023-05-10T05:54:37;7.60;;;7.10;;
5951;SDS011;3001;42.622;23.194;2023-05-10T05:57:04;7.50;;;7.00;;
5951;SDS011;3001;42.622;23.194;2023-05-10T05:59:31;7.60;;;7.10;;
5951;SDS011;3001;42.622;23.194;2023-05-10T06:01:59;7.33;;;6.77;;
5951;SDS011;3001;42.622;23.194;2023-05-10T06:04:25;8.27;;;7.40;;
5951;SDS011;3001;42.622;23.194;2023-05-10T06:06:52;12.43;;;8.70;;
5951;SDS011;3001;42.622;23.194;2023-05-10T06:09:19;9.27;;;8.43;;
5951;SDS011;3001;42.622;23.194;2023-05-10T06:11:46;7.93;;;7.33;;
5951;SDS011;3001;42.622;23.194;2023-05-10T06:14:12;7.63;;;7.17;;
5951;SDS011;3001;42.622;23.194;2023-05-10T06:16:39;8.20;;;7.43;;
5951;SDS011;3001;42.622;23.194;2023-05-10T06:19:08;8.30;;;7.50;;
5951;SDS011;3001;42.622;23.194;2023-05-10T06:21:34;8.23;;;7.63;;
5951;SDS011;3001;42.622;23.194;2023-05-10T06:24:01;8.27;;;7.47;;
5951;SDS011;3001;42.622;23.194;2023-05-10T06:26:28;8.27;;;7.43;;
5951;SDS011;3001;42.622;23.194;2023-05-10T06:28:54;8.43;;;7.73;;
5951;SDS011;3001;42.622;23.194;2023-05-10T06:31:21;8.33;;;7.63;;
5951;SDS011;3001;42.622;23.194;2023-05-10T06:33:47;8.90;;;8.00;;
5951;SDS011;3001;42.622;23.194;2023-05-10T06:36:15;9.33;;;8.40;;
5951;SDS011;3001;42.622;23.194;2023-05-10T06:38:42;11.93;;;8.23;;
5951;SDS011;3001;42.622;23.194;2023-05-10T06:41:09;9.07;;;8.37;;
5951;SDS011;3001;42.622;23.194;2023-05-10T06:43:35;9.27;;;8.63;;
5951;SDS011;3001;42.622;23.194;2023-05-10T06:46:05;9.53;;;8.83;;
5951;SDS011;3001;42.622;23.194;2023-05-10T06:48:31;9.60;;;8.90;;
5951;SDS011;3001;42.622;23.194;2023-05-10T06:50:59;10.80;;;9.90;;
5951;SDS011;3001;42.622;23.194;2023-05-10T06:53:27;10.20;;;9.20;;
5951;SDS011;3001;42.622;23.194;2023-05-10T06:55:53;11.00;;;9.87;;
5951;SDS011;3001;42.622;23.194;2023-05-10T06:58:20;11.67;;;10.47;;
5951;SDS011;3001;42.622;23.194;2023-05-10T07:00:47;10.73;;;9.50;;
5951;SDS011;3001;42.622;23.194;2023-05-10T07:03:13;10.10;;;8.97;;
5951;SDS011;3001;42.622;23.194;2023-05-10T07:05:40;11.17;;;10.10;;
5951;SDS011;3001;42.622;23.194;2023-05-10T07:22:48;11.90;;;11.00;;
5951;SDS011;3001;42.622;23.194;2023-05-10T07:25:15;11.30;;;10.00;;
5951;SDS011;3001;42.622;23.194;2023-05-10T07:27:42;27.63;;;16.67;;
5951;SDS011;3001;42.622;23.194;2023-05-10T07:30:09;25.67;;;16.83;;
5951;SDS011;3001;42.622;23.194;2023-05-10T07:32:36;49.43;;;22.30;;
5951;SDS011;3001;42.622;23.194;2023-05-10T07:35:04;22.33;;;13.63;;
5951;SDS011;3001;42.622;23.194;2023-05-10T07:37:31;24.27;;;15.23;;
5951;SDS011;3001;42.622;23.194;2023-05-10T08:27:58;11.77;;;10.67;;
5951;SDS011;3001;42.622;23.194;2023-05-10T08:30:25;11.40;;;10.30;;
5951;SDS011;3001;42.622;23.194;2023-05-10T08:32:51;16.23;;;12.40;;
5951;SDS011;3001;42.622;23.194;2023-05-10T08:35:18;14.60;;;13.10;;
5951;SDS011;3001;42.622;23.194;2023-05-10T08:37:45;16.00;;;11.90;;
5951;SDS011;3001;42.622;23.194;2023-05-10T08:40:12;13.00;;;11.13;;
5951;SDS011;3001;42.622;23.194;2023-05-10T08:42:40;17.30;;;10.77;;
5951;SDS011;3001;42.622;23.194;2023-05-10T08:45:15;11.80;;;10.27;;
5951;SDS011;3001;42.622;23.194;2023-05-10T08:47:43;11.77;;;10.43;;
5951;SDS011;3001;42.622;23.194;2023-05-10T08:50:10;12.03;;;10.93;;
5951;SDS011;3001;42.622;23.194;2023-05-10T08:52:38;11.33;;;10.33;;
5951;SDS011;3001;42.622;23.194;2023-05-10T08:55:06;12.00;;;10.63;;
5951;SDS011;3001;42.622;23.194;2023-05-10T08:57:33;12.90;;;11.60;;
5951;SDS011;3001;42.622;23.194;2023-05-10T09:00:02;12.87;;;11.57;;
5951;SDS011;3001;42.622;23.194;2023-05-10T09:02:30;21.33;;;17.63;;
5951;SDS011;3001;42.622;23.194;2023-05-10T09:04:57;15.03;;;13.53;;
5951;SDS011;3001;42.622;23.194;2023-05-10T09:07:24;26.90;;;19.23;;
5951;SDS011;3001;42.622;23.194;2023-05-10T09:09:51;19.03;;;16.43;;
5951;SDS011;3001;42.622;23.194;2023-05-10T09:12:19;35.53;;;24.90;;
5951;SDS011;3001;42.622;23.194;2023-05-10T09:14:46;19.77;;;15.83;;
5951;SDS011;3001;42.622;23.194;2023-05-10T09:17:13;18.67;;;16.67;;
5951;SDS011;3001;42.622;23.194;2023-05-10T09:19:41;15.97;;;13.23;;
5951;SDS011;3001;42.622;23.194;2023-05-10T09:22:08;12.63;;;11.03;;
5951;SDS011;3001;42.622;23.194;2023-05-10T09:24:36;13.50;;;12.13;;
5951;SDS011;3001;42.622;23.194;2023-05-10T09:27:07;14.87;;;13.30;;
5951;SDS011;3001;42.622;23.194;2023-05-10T09:29:41;14.00;;;11.53;;
5951;SDS011;3001;42.622;23.194;2023-05-10T09:32:09;13.87;;;10.67;;
5951;SDS011;3001;42.622;23.194;2023-05-10T09:34:35;13.10;;;10.53;;
5951;SDS011;3001;42.622;23.194;2023-05-10T09:37:06;11.77;;;10.77;;
5951;SDS011;3001;42.622;23.194;2023-05-10T09:39:33;12.77;;;11.50;;
5951;SDS011;3001;42.622;23.194;2023-05-10T09:42:02;12.53;;;11.23;;
5951;SDS011;3001;42.622;23.194;2023-05-10T09:44:31;14.73;;;12.07;;
5951;SDS011;3001;42.622;23.194;2023-05-10T09:46:58;11.53;;;10.63;;
5951;SDS011;3001;42.622;23.194;2023-05-10T09:49:25;12.13;;;11.10;;
5951;SDS011;3001;42.622;23.194;2023-05-10T09:52:02;15.63;;;13.13;;
5951;SDS011;3001;42.622;23.194;2023-05-10T09:54:31;11.40;;;10.30;;
5951;SDS011;3001;42.622;23.194;2023-05-10T09:56:58;11.70;;;10.53;;
5951;SDS011;3001;42.622;23.194;2023-05-10T09:59:25;11.93;;;11.10;;
5951;SDS011;3001;42.622;23.194;2023-05-10T10:01:53;11.40;;;10.50;;
5951;SDS011;3001;42.622;23.194;2023-05-10T10:04:22;11.70;;;10.57;;
5951;SDS011;3001;42.622;23.194;2023-05-10T10:06:58;11.43;;;10.43;;
5951;SDS011;3001;42.622;23.194;2023-05-10T10:09:26;9.20;;;8.60;;
5951;SDS011;3001;42.622;23.194;2023-05-10T10:11:55;11.27;;;10.23;;
5951;SDS011;3001;42.622;23.194;2023-05-10T10:14:21;12.10;;;11.00;;
5951;SDS011;3001;42.622;23.194;2023-05-10T10:16:49;11.60;;;10.57;;
5951;SDS011;3001;42.622;23.194;2023-05-10T10:19:15;11.37;;;10.37;;
5951;SDS011;3001;42.622;23.194;2023-05-10T10:21:43;11.57;;;10.47;;
5951;SDS011;3001;42.622;23.194;2023-05-10T10:24:09;11.03;;;10.03;;
5951;SDS011;3001;42.622;23.194;2023-05-10T10:26:36;11.90;;;10.80;;
5951;SDS011;3001;42.622;23.194;2023-05-10T10:29:15;11.10;;;10.00;;
5951;SDS011;3001;42.622;23.194;2023-05-10T10:31:48;10.37;;;9.63;;
5951;SDS011;3001;42.622;23.194;2023-05-10T10:34:25;10.03;;;9.20;;
5951;SDS011;3001;42.622;23.194;2023-05-10T10:36:54;10.63;;;9.57;;
5951;SDS011;3001;42.622;23.194;2023-05-10T10:39:22;10.50;;;9.70;;
5951;SDS011;3001;42.622;23.194;2023-05-10T10:41:51;12.13;;;10.10;;
5951;SDS011;3001;42.622;23.194;2023-05-10T10:44:35;11.37;;;10.47;;
5951;SDS011;3001;42.622;23.194;2023-05-10T10:47:07;10.27;;;9.47;;
5951;SDS011;3001;42.622;23.194;2023-05-10T10:49:38;10.93;;;10.00;;
5951;SDS011;3001;42.622;23.194;2023-05-10T10:52:12;21.73;;;16.93;;
5951;SDS011;3001;42.622;23.194;2023-05-10T10:54:40;13.50;;;11.97;;
5951;SDS011;3001;42.622;23.194;2023-05-10T10:57:10;12.40;;;11.17;;
5951;SDS011;3001;42.622;23.194;2023-05-10T10:59:42;12.67;;;11.47;;
5951;SDS011;3001;42.622;23.194;2023-05-10T11:02:09;10.70;;;9.70;;
5951;SDS011;3001;42.622;23.194;2023-05-10T11:04:42;11.40;;;10.33;;
5951;SDS011;3001;42.622;23.194;2023-05-10T11:07:17;12.73;;;11.63;;
5951;SDS011;3001;42.622;23.194;2023-05-10T11:09:45;13.93;;;11.37;;
5951;SDS011;3001;42.622;23.194;2023-05-10T11:12:13;11.30;;;10.20;;
5951;SDS011;3001;42.622;23.194;2023-05-10T11:14:39;11.73;;;10.70;;
5951;SDS011;3001;42.622;23.194;2023-05-10T11:20:06;13.83;;;12.53;;
5951;SDS011;3001;42.622;23.194;2023-05-10T11:22:48;12.27;;;11.13;;
5951;SDS011;3001;42.622;23.194;2023-05-10T11:25:16;11.70;;;10.40;;
5951;SDS011;3001;42.622;23.194;2023-05-10T11:27:43;19.87;;;11.03;;
5951;SDS011;3001;42.622;23.194;2023-05-10T11:30:11;12.67;;;11.47;;
5951;SDS011;3001;42.622;23.194;2023-05-10T11:32:40;12.87;;;11.83;;
5951;SDS011;3001;42.622;23.194;2023-05-10T11:35:07;11.63;;;10.43;;
5951;SDS011;3001;42.622;23.194;2023-05-10T11:37:34;10.63;;;9.63;;
5951;SDS011;3001;42.622;23.194;2023-05-10T11:40:01;11.23;;;10.13;;
5951;SDS011;3001;42.622;23.194;2023-05-10T11:42:28;11.47;;;10.40;;
5951;SDS011;3001;42.622;23.194;2023-05-10T11:44:55;11.77;;;10.47;;
5951;SDS011;3001;42.622;23.194;2023-05-10T11:47:22;12.43;;;10.30;;
5951;SDS011;3001;42.622;23.194;2023-05-10T11:49:50;12.57;;;11.43;;
5951;SDS011;3001;42.622;23.194;2023-05-10T11:52:18;11.63;;;10.70;;
5951;SDS011;3001;42.622;23.194;2023-05-10T11:54:46;11.27;;;10.43;;
5951;SDS011;3001;42.622;23.194;2023-05-10T11:57:17;10.77;;;9.87;;
5951;SDS011;3001;42.622;23.194;2023-05-10T11:59:45;11.67;;;10.47;;
5951;SDS011;3001;42.622;23.194;2023-05-10T12:02:12;12.00;;;10.57;;
5951;SDS011;3001;42.622;23.194;2023-05-10T12:04:39;11.93;;;10.00;;
5951;SDS011;3001;42.622;23.194;2023-05-10T12:07:08;9.83;;;9.10;;
5951;SDS011;3001;42.622;23.194;2023-05-10T12:09:35;13.13;;;11.83;;
5951;SDS011;3001;42.622;23.194;2023-05-10T12:12:02;12.07;;;11.17;;
5951;SDS011;3001;42.622;23.194;2023-05-10T12:14:29;11.87;;;10.73;;
5951;SDS011;3001;42.622;23.194;2023-05-10T12:17:00;11.17;;;10.17;;
5951;SDS011;3001;42.622;23.194;2023-05-10T12:19:27;11.77;;;10.77;;
5951;SDS011;3001;42.622;23.194;2023-05-10T12:21:53;9.70;;;9.00;;
5951;SDS011;3001;42.622;23.194;2023-05-10T12:24:21;10.27;;;9.53;;
5951;SDS011;3001;42.622;23.194;2023-05-10T12:26:49;10.07;;;9.40;;
5951;SDS011;3001;42.622;23.194;2023-05-10T12:29:17;9.97;;;9.37;;
5951;SDS011;3001;42.622;23.194;2023-05-10T12:31:54;10.10;;;9.47;;
5951;SDS011;3001;42.622;23.194;2023-05-10T12:34:23;10.07;;;9.37;;
5951;SDS011;3001;42.622;23.194;2023-05-10T12:36:53;10.47;;;9.53;;
5951;SDS011;3001;42.622;23.194;2023-05-10T12:39:21;10.10;;;9.37;;
5951;SDS011;3001;42.622;23.194;2023-05-10T12:41:48;10.07;;;9.07;;
5951;SDS011;3001;42.622;23.194;2023-05-10T12:44:15;11.07;;;10.23;;
5951;SDS011;3001;42.622;23.194;2023-05-10T12:46:42;10.27;;;9.50;;
5951;SDS011;3001;42.622;23.194;2023-05-10T12:49:08;9.90;;;9.20;;
5951;SDS011;3001;42.622;23.194;2023-05-10T12:51:35;10.03;;;9.33;;
5951;SDS011;3001;42.622;23.194;2023-05-10T12:54:02;10.77;;;9.87;;
5951;SDS011;3001;42.622;23.194;2023-05-10T12:56:30;10.60;;;9.80;;
5951;SDS011;3001;42.622;23.194;2023-05-10T12:58:57;10.17;;;9.40;;
5951;SDS011;3001;42.622;23.194;2023-05-10T13:01:23;11.37;;;10.23;;
5951;SDS011;3001;42.622;23.194;2023-05-10T13:03:50;12.47;;;11.13;;
5951;SDS011;3001;42.622;23.194;2023-05-10T13:06:17;14.03;;;10.63;;
5951;SDS011;3001;42.622;23.194;2023-05-10T13:08:43;13.77;;;10.33;;
5951;SDS011;3001;42.622;23.194;2023-05-10T13:11:10;10.63;;;9.70;;
5951;SDS011;3001;42.622;23.194;2023-05-10T13:13:38;12.60;;;9.63;;
5951;SDS011;3001;42.622;23.194;2023-05-10T13:16:05;10.63;;;9.73;;
5951;SDS011;3001;42.622;23.194;2023-05-10T13:18:32;11.00;;;10.10;;
5951;SDS011;3001;42.622;23.194;2023-05-10T13:20:59;11.57;;;10.67;;
5951;SDS011;3001;42.622;23.194;2023-05-10T13:23:25;14.23;;;9.90;;
5951;SDS011;3001;42.622;23.194;2023-05-10T13:25:52;11.40;;;10.37;;
5951;SDS011;3001;42.622;23.194;2023-05-10T13:28:19;11.10;;;10.13;;
5951;SDS011;3001;42.622;23.194;2023-05-10T13:30:47;11.80;;;10.73;;
5951;SDS011;3001;42.622;23.194;2023-05-10T13:33:13;11.57;;;10.57;;
5951;SDS011;3001;42.622;23.194;2023-05-10T13:35:40;11.40;;;10.30;;
5951;SDS011;3001;42.622;23.194;2023-05-10T13:38:07;11.63;;;10.53;;
5951;SDS011;3001;42.622;23.194;2023-05-10T13:40:34;14.07;;;10.83;;
5951;SDS011;3001;42.622;23.194;2023-05-10T13:43:01;11.53;;;10.33;;
5951;SDS011;3001;42.622;23.194;2023-05-10T13:45:28;12.43;;;11.03;;
5951;SDS011;3001;42.622;23.194;2023-05-10T13:47:56;14.37;;;12.87;;
5951;SDS011;3001;42.622;23.194;2023-05-10T13:50:22;15.00;;;12.07;;
5951;SDS011;3001;42.622;23.194;2023-05-10T13:52:49;11.23;;;10.33;;
5951;SDS011;3001;42.622;23.194;2023-05-10T13:55:16;10.73;;;9.83;;
5951;SDS011;3001;42.622;23.194;2023-05-10T13:57:42;11.00;;;9.93;;
5951;SDS011;3001;42.622;23.194;2023-05-10T14:00:09;10.73;;;9.87;;
5951;SDS011;3001;42.622;23.194;2023-05-10T14:02:37;10.60;;;9.73;;
5951;SDS011;3001;42.622;23.194;2023-05-10T14:05:05;9.70;;;9.00;;
5951;SDS011;3001;42.622;23.194;2023-05-10T14:07:32;10.97;;;10.13;;
5951;SDS011;3001;42.622;23.194;2023-05-10T14:09:59;11.30;;;10.40;;
5951;SDS011;3001;42.622;23.194;2023-05-10T14:12:26;9.97;;;9.07;;
5951;SDS011;3001;42.622;23.194;2023-05-10T14:14:53;9.37;;;8.63;;
5951;SDS011;3001;42.622;23.194;2023-05-10T14:17:19;10.27;;;9.43;;
5951;SDS011;3001;42.622;23.194;2023-05-10T14:19:47;10.17;;;9.37;;
5951;SDS011;3001;42.622;23.194;2023-05-10T14:22:15;10.57;;;9.57;;
5951;SDS011;3001;42.622;23.194;2023-05-10T14:24:41;10.17;;;9.37;;
5951;SDS011;3001;42.622;23.194;2023-05-10T14:27:11;10.53;;;9.73;;
5951;SDS011;3001;42.622;23.194;2023-05-10T14:29:38;11.07;;;10.03;;
5951;SDS011;3001;42.622;23.194;2023-05-10T14:32:05;11.70;;;10.60;;
5951;SDS011;3001;42.622;23.194;2023-05-10T14:34:31;11.57;;;9.90;;
5951;SDS011;3001;42.622;23.194;2023-05-10T14:36:58;11.63;;;10.67;;
5951;SDS011;3001;42.622;23.194;2023-05-10T14:39:26;10.90;;;10.00;;
5951;SDS011;3001;42.622;23.194;2023-05-10T14:41:54;10.60;;;9.60;;
5951;SDS011;3001;42.622;23.194;2023-05-10T14:44:21;12.53;;;9.77;;
5951;SDS011;3001;42.622;23.194;2023-05-10T14:46:48;10.77;;;9.77;;
5951;SDS011;3001;42.622;23.194;2023-05-10T14:49:15;10.97;;;10.07;;
5951;SDS011;3001;42.622;23.194;2023-05-10T14:51:42;11.50;;;10.27;;
5951;SDS011;3001;42.622;23.194;2023-05-10T14:54:10;11.20;;;10.23;;
5951;SDS011;3001;42.622;23.194;2023-05-10T14:56:38;11.33;;;10.00;;
5951;SDS011;3001;42.622;23.194;2023-05-10T14:59:06;10.70;;;9.67;;
5951;SDS011;3001;42.622;23.194;2023-05-10T15:01:33;11.03;;;10.13;;
5951;SDS011;3001;42.622;23.194;2023-05-10T15:04:02;10.10;;;9.17;;
5951;SDS011;3001;42.622;23.194;2023-05-10T15:06:32;11.60;;;10.47;;
5951;SDS011;3001;42.622;23.194;2023-05-10T15:08:59;10.73;;;9.87;;
5951;SDS011;3001;42.622;23.194;2023-05-10T15:11:26;11.20;;;10.27;;
5951;SDS011;3001;42.622;23.194;2023-05-10T15:13:55;9.87;;;9.07;;
5951;SDS011;3001;42.622;23.194;2023-05-10T15:16:22;11.13;;;10.23;;
5951;SDS011;3001;42.622;23.194;2023-05-10T15:18:48;14.10;;;10.93;;
5951;SDS011;3001;42.622;23.194;2023-05-10T15:21:15;18.07;;;16.20;;
5951;SDS011;3001;42.622;23.194;2023-05-10T15:23:42;15.37;;;13.70;;
5951;SDS011;3001;42.622;23.194;2023-05-10T15:26:09;13.93;;;12.63;;
5951;SDS011;3001;42.622;23.194;2023-05-10T15:28:36;14.23;;;11.63;;
5951;SDS011;3001;42.622;23.194;2023-05-10T15:31:04;12.17;;;11.10;;
5951;SDS011;3001;42.622;23.194;2023-05-10T15:33:30;11.73;;;10.63;;
5951;SDS011;3001;42.622;23.194;2023-05-10T15:35:57;16.23;;;12.57;;
5951;SDS011;3001;42.622;23.194;2023-05-10T15:38:24;13.87;;;12.57;;
5951;SDS011;3001;42.622;23.194;2023-05-10T15:40:50;12.73;;;11.73;;
5951;SDS011;3001;42.622;23.194;2023-05-10T15:43:21;15.33;;;13.57;;
5951;SDS011;3001;42.622;23.194;2023-05-10T15:45:48;20.47;;;15.23;;
5951;SDS011;3001;42.622;23.194;2023-05-10T15:48:16;20.90;;;15.93;;
5951;SDS011;3001;42.622;23.194;2023-05-10T15:50:43;16.77;;;14.83;;
5951;SDS011;3001;42.622;23.194;2023-05-10T15:53:10;17.30;;;15.50;;
5951;SDS011;3001;42.622;23.194;2023-05-10T15:55:36;16.77;;;14.97;;
5951;SDS011;3001;42.622;23.194;2023-05-10T15:58:03;16.73;;;14.97;;
5951;SDS011;3001;42.622;23.194;2023-05-10T16:00:30;15.27;;;13.10;;
5951;SDS011;3001;42.622;23.194;2023-05-10T16:02:56;15.73;;;14.07;;